Terminal Aerodrome Forecast
Issued by NWS Charleston, WV

Current Version | Previous Version | Text Only | Print | Product List | Glossary On
Versions: 1 2 3 4 5 6 7 8 9 10 11 12 13 14 15 16 17 18 19 20 21 22 23 24 25 26
000
FTUS41 KRLX 071726
TAFPKB
TAF
KPKB 071726Z 0718/0818 20010G19KT P6SM VCTS BKN035CB
     FM072300 22008KT 4SM BR VCTS BKN035CB
     FM080100 23007KT 3SM BR VCTS BKN025CB
     FM080900 25005KT 3SM BR VCTS OVC010CB
     FM081400 25005KT 2SM BR VCTS BKN006 OVC012CB=

USA.gov is the U.S. government's official web portal to all federal, state and local government web resources and services.